Time,TemperatureF,DewpointF,PressureIn,WindDirection,WindDirectionDegrees,WindSpeedMPH,WindSpeedGustMPH,Humidity,HourlyPrecipIn,Conditions,Clouds,dailyrainin,SoftwareType,DateUTC
2015-04-25 00:12:00,32.0,23.0,29.72,WNW,292,2.2,-999.0,69,-99.99,,,0.00,Acu-Link.com,2015-04-25 04:12:00,
2015-04-25 00:27:00,32.2,22.8,29.71,West,270,2.7,-999.0,68,-99.99,,,0.00,Acu-Link.com,2015-04-25 04:27:00,
2015-04-25 00:43:00,32.2,22.8,29.71,NW,315,1.7,-999.0,68,-99.99,,,0.00,Acu-Link.com,2015-04-25 04:43:00,
2015-04-25 00:58:00,32.0,22.7,29.70,NNE,22,1.1,-999.0,68,-99.99,,,0.00,Acu-Link.com,2015-04-25 04:58:00,
2015-04-25 01:13:00,31.6,22.3,29.70,WSW,247,5.8,-999.0,68,-99.99,,,0.00,Acu-Link.com,2015-04-25 05:13:00,
2015-04-25 01:31:00,31.5,22.2,29.69,NNW,337,3.2,-999.0,68,-99.99,,,0.00,Acu-Link.com,2015-04-25 05:31:00,
2015-04-25 01:46:00,31.3,22.3,29.69,North,0,2.7,-999.0,69,-99.99,,,0.00,Acu-Link.com,2015-04-25 05:46:00,
2015-04-25 02:01:00,31.3,22.7,29.69,NNW,337,2.2,-999.0,70,-99.99,,,0.00,Acu-Link.com,2015-04-25 06:01:00,
2015-04-25 02:16:00,31.5,22.9,29.69,NNW,337,3.2,-999.0,70,-99.99,,,0.00,Acu-Link.com,2015-04-25 06:16:00,
2015-04-25 02:32:00,31.3,23.0,29.69,WNW,292,1.7,-999.0,71,-99.99,,,0.00,Acu-Link.com,2015-04-25 06:32:00,
2015-04-25 02:47:00,31.1,22.8,29.69,NNW,337,2.7,-999.0,71,-99.99,,,0.00,Acu-Link.com,2015-04-25 06:47:00,
2015-04-25 03:03:00,31.1,23.1,29.68,NNW,337,3.2,-999.0,72,-99.99,,,0.00,Acu-Link.com,2015-04-25 07:03:00,
2015-04-25 03:18:00,31.1,23.1,29.68,NNE,22,2.2,-999.0,72,-99.99,,,0.00,Acu-Link.com,2015-04-25 07:18:00,
2015-04-25 03:33:00,30.9,23.0,29.68,SSW,202,1.7,-999.0,72,-99.99,,,0.00,Acu-Link.com,2015-04-25 07:33:00,
2015-04-25 03:49:00,30.9,23.0,29.68,WNW,292,3.2,-999.0,72,-99.99,,,0.00,Acu-Link.com,2015-04-25 07:49:00,
2015-04-25 04:04:00,30.9,23.6,29.68,NE,45,2.7,-999.0,74,-99.99,,,0.00,Acu-Link.com,2015-04-25 08:04:00,
2015-04-25 04:19:00,31.1,23.8,29.68,West,270,2.7,-999.0,74,-99.99,,,0.00,Acu-Link.com,2015-04-25 08:19:00,
2015-04-25 04:35:00,30.9,23.6,29.68,WSW,247,1.1,-999.0,74,-99.99,,,0.00,Acu-Link.com,2015-04-25 08:35:00,
2015-04-25 04:50:00,30.6,23.6,29.68,West,270,0.0,-999.0,75,-99.99,,,0.00,Acu-Link.com,2015-04-25 08:50:00,
2015-04-25 05:05:00,30.0,23.4,29.68,North,0,1.1,-999.0,76,-99.99,,,0.00,Acu-Link.com,2015-04-25 09:05:00,
2015-04-25 05:20:00,30.0,23.4,29.69,NNW,337,1.7,-999.0,76,-99.99,,,0.00,Acu-Link.com,2015-04-25 09:20:00,
2015-04-25 05:35:00,29.5,23.2,29.69,WNW,292,1.1,-999.0,77,-99.99,,,0.00,Acu-Link.com,2015-04-25 09:35:00,
2015-04-25 05:51:00,28.9,22.9,29.69,WSW,247,2.2,-999.0,78,-99.99,,,0.00,Acu-Link.com,2015-04-25 09:51:00,
2015-04-25 06:06:00,28.8,23.1,29.69,West,270,1.7,-999.0,79,-99.99,,,0.00,Acu-Link.com,2015-04-25 10:06:00,
2015-04-25 06:21:00,28.9,23.5,29.70,NNE,22,0.0,-999.0,80,-99.99,,,0.00,Acu-Link.com,2015-04-25 10:21:00,
2015-04-25 06:37:00,30.4,23.8,29.70,WSW,247,0.0,-999.0,76,-99.99,,,0.00,Acu-Link.com,2015-04-25 10:37:00,
2015-04-25 06:52:00,31.6,25.2,29.70,SW,225,1.1,-999.0,77,-99.99,,,0.00,Acu-Link.com,2015-04-25 10:52:00,
2015-04-25 07:07:00,32.7,24.7,29.70,NE,45,1.7,-999.0,72,-99.99,,,0.00,Acu-Link.com,2015-04-25 11:07:00,
2015-04-25 07:22:00,33.3,24.9,29.69,NNW,337,2.2,-999.0,71,-99.99,,,0.00,Acu-Link.com,2015-04-25 11:22:00,
2015-04-25 07:37:00,34.3,24.9,29.69,ESE,112,5.8,-999.0,68,-99.99,,,0.00,Acu-Link.com,2015-04-25 11:37:00,
2015-04-25 07:53:00,34.9,24.3,29.68,West,270,2.2,-999.0,65,-99.99,,,0.00,Acu-Link.com,2015-04-25 11:53:00,
2015-04-25 08:08:00,35.8,25.2,29.69,NW,315,1.7,-999.0,65,-99.99,,,0.00,Acu-Link.com,2015-04-25 12:08:00,
2015-04-25 08:24:00,36.9,25.9,29.69,WSW,247,2.7,-999.0,64,-99.99,,,0.00,Acu-Link.com,2015-04-25 12:24:00,
2015-04-25 08:39:00,36.9,25.9,29.68,WSW,247,1.7,-999.0,64,-99.99,,,0.00,Acu-Link.com,2015-04-25 12:39:00,
2015-04-25 08:54:00,37.8,26.4,29.68,SSW,202,3.7,-999.0,63,-99.99,,,0.00,Acu-Link.com,2015-04-25 12:54:00,
2015-04-25 09:09:00,39.6,27.3,29.67,SW,225,3.2,-999.0,61,-99.99,,,0.00,Acu-Link.com,2015-04-25 13:09:00,
2015-04-25 09:24:00,40.3,27.1,29.67,NNW,337,4.7,-999.0,59,-99.99,,,0.00,Acu-Link.com,2015-04-25 13:24:00,
2015-04-25 09:39:00,41.9,28.2,29.67,NNW,337,4.2,-999.0,58,-99.99,,,0.00,Acu-Link.com,2015-04-25 13:39:00,
2015-04-25 09:55:00,43.9,29.2,29.67,NNW,337,4.2,-999.0,56,-99.99,,,0.00,Acu-Link.com,2015-04-25 13:55:00,
2015-04-25 10:10:00,45.0,29.8,29.66,NNW,337,3.7,-999.0,55,-99.99,,,0.00,Acu-Link.com,2015-04-25 14:10:00,
2015-04-25 10:25:00,45.3,28.7,29.66,West,270,2.7,-999.0,52,-99.99,,,0.00,Acu-Link.com,2015-04-25 14:25:00,
2015-04-25 10:40:00,44.2,28.2,29.66,ESE,112,4.2,-999.0,53,-99.99,,,0.00,Acu-Link.com,2015-04-25 14:40:00,
2015-04-25 10:55:00,46.9,30.7,29.66,NNW,337,3.2,-999.0,53,-99.99,,,0.00,Acu-Link.com,2015-04-25 14:55:00,
2015-04-25 11:11:00,48.9,31.6,29.66,South,180,3.2,-999.0,51,-99.99,,,0.00,Acu-Link.com,2015-04-25 15:11:00,
2015-04-25 11:26:00,48.2,30.9,29.65,NNW,337,6.3,-999.0,51,-99.99,,,0.00,Acu-Link.com,2015-04-25 15:26:00,
2015-04-25 11:41:00,47.3,30.6,29.65,SE,135,3.2,-999.0,52,-99.99,,,0.00,Acu-Link.com,2015-04-25 15:41:00,
2015-04-25 11:56:00,46.6,29.5,29.65,SSW,202,5.3,-999.0,51,-99.99,,,0.00,Acu-Link.com,2015-04-25 15:56:00,
2015-04-25 12:12:00,45.7,29.6,29.65,WSW,247,2.7,-999.0,53,-99.99,,,0.00,Acu-Link.com,2015-04-25 16:12:00,
2015-04-25 12:27:00,46.9,30.7,29.64,East,90,5.3,-999.0,53,-99.99,,,0.00,Acu-Link.com,2015-04-25 16:27:00,
2015-04-25 12:42:00,46.4,30.2,29.64,West,270,5.3,-999.0,53,-99.99,,,0.00,Acu-Link.com,2015-04-25 16:42:00,
2015-04-25 12:57:00,46.4,31.1,29.65,SE,135,1.7,-999.0,55,-99.99,,,0.00,Acu-Link.com,2015-04-25 16:57:00,
2015-04-25 13:12:00,47.7,31.4,29.64,SSE,157,5.3,-999.0,53,-99.99,,,0.00,Acu-Link.com,2015-04-25 17:12:00,
2015-04-25 13:27:00,48.2,31.4,29.64,NNW,337,4.7,-999.0,52,-99.99,,,0.00,Acu-Link.com,2015-04-25 17:27:00,
2015-04-25 13:42:00,49.5,32.1,29.64,West,270,5.3,-999.0,51,-99.99,,,0.00,Acu-Link.com,2015-04-25 17:42:00,
2015-04-25 14:03:00,47.5,30.3,29.64,NNW,337,3.7,-999.0,51,-99.99,,,0.00,Acu-Link.com,2015-04-25 18:03:00,
2015-04-25 14:18:00,47.1,30.9,29.64,NE,45,2.7,-999.0,53,-99.99,,,0.00,Acu-Link.com,2015-04-25 18:18:00,
2015-04-25 14:33:00,46.6,30.9,29.64,North,0,2.2,-999.0,54,-99.99,,,0.00,Acu-Link.com,2015-04-25 18:33:00,
2015-04-25 14:49:00,46.2,30.9,29.64,NE,45,2.2,-999.0,55,-99.99,,,0.00,Acu-Link.com,2015-04-25 18:49:00,
2015-04-25 15:04:00,46.2,30.5,29.64,NNE,22,2.2,-999.0,54,-99.99,,,0.00,Acu-Link.com,2015-04-25 19:04:00,
2015-04-25 15:20:00,46.0,30.7,29.64,SE,135,1.1,-999.0,55,-99.99,,,0.00,Acu-Link.com,2015-04-25 19:20:00,
2015-04-25 15:35:00,46.8,32.4,29.64,North,0,1.7,-999.0,57,-99.99,,,0.00,Acu-Link.com,2015-04-25 19:35:00,
2015-04-25 15:50:00,47.5,32.1,29.63,ESE,112,1.7,-999.0,55,-99.99,,,0.00,Acu-Link.com,2015-04-25 19:50:00,
2015-04-25 16:05:00,46.4,32.0,29.64,SE,135,2.2,-999.0,57,-99.99,,,0.00,Acu-Link.com,2015-04-25 20:05:00,
2015-04-25 16:21:00,46.2,32.2,29.64,SE,135,2.2,-999.0,58,-99.99,,,0.00,Acu-Link.com,2015-04-25 20:21:00,
2015-04-25 16:36:00,45.7,31.8,29.64,North,0,0.0,-999.0,58,-99.99,,,0.00,Acu-Link.com,2015-04-25 20:36:00,